• Join FlightAware (Why Join?)
  • Login
  • US Flag 
11:26PM EDT


 

Airport Tracker/Info


-or-


 

Live Flight TrackerFlight Track Log ✈ TC-JFH ✈ 27-Apr-2012 ✈ LOWW / VIE - LTBA / IST

Flight Track Log - Related Links

Times and Time Zones

All times are in EDT time to prevent confusion due to time zone crossing. See the TC-JFH flight status page for this flight to view local times or setup timezone preferences in your user account.

Time Position Orientation Groundspeed Altitude Reporting Facility
EDT Latitude Longitude Course Direction KTS MPH feet Rate Location/Type
02:26PM 47.9749 16.8598 125° Southeast  Level Estimated
02:27PM 47.9145 16.9883 125° Southeast  Level Estimated
02:28PM 47.8540 17.1164 125° Southeast  Level Estimated
02:29PM 47.7933 17.2442 125° Southeast  Level Estimated
02:30PM 47.7324 17.3718 125° Southeast  Level Estimated
02:31PM 47.6715 17.4990 125° Southeast  Level Estimated
02:32PM 47.6104 17.6260 126° Southeast  Level Estimated
02:33PM 47.5491 17.7526 126° Southeast  Level Estimated
02:34PM 47.4877 17.8790 126° Southeast  Level Estimated
02:35PM 47.4262 18.0050 126° Southeast  Level Estimated
02:36PM 47.3645 18.1308 126° Southeast  Level Estimated
02:37PM 47.3027 18.2563 126° Southeast  Level Estimated
02:38PM 47.2408 18.3815 126° Southeast  Level Estimated
02:39PM 47.1787 18.5063 126° Southeast  Level Estimated
02:40PM 47.1165 18.6309 126° Southeast  Level Estimated
02:41PM 47.0541 18.7552 126° Southeast  Level Estimated
02:42PM 46.9917 18.8792 127° Southeast  Level Estimated
02:43PM 46.9291 19.0030 127° Southeast  Level Estimated
02:44PM 46.8663 19.1264 127° Southeast  Level Estimated
02:45PM 46.8034 19.2495 127° Southeast  Level Estimated
02:46PM 46.7404 19.3724 127° Southeast  Level Estimated
02:47PM 46.6773 19.4950 127° Southeast  Level Estimated
02:48PM 46.6140 19.6172 127° Southeast  Level Estimated
02:49PM 46.5506 19.7392 127° Southeast  Level Estimated
02:50PM 46.4871 19.8610 127° Southeast  Level Estimated
02:51PM 46.4234 19.9824 127° Southeast  Level Estimated
02:52PM 46.3596 20.1035 127° Southeast  Level Estimated
02:53PM 46.2957 20.2244 127° Southeast  Level Estimated
02:54PM 46.2317 20.3450 128° Southeast  Level Estimated
02:55PM 46.1675 20.4653 128° Southeast  Level Estimated
02:56PM 46.1032 20.5853 128° Southeast  Level Estimated
02:57PM 46.0388 20.7050 128° Southeast  Level Estimated
02:58PM 45.9742 20.8245 128° Southeast  Level Estimated
02:59PM 45.9095 20.9437 128° Southeast  Level Estimated
03:00PM 45.8448 21.0626 128° Southeast  Level Estimated
03:01PM 45.7798 21.1812 128° Southeast  Level Estimated
03:02PM 45.7148 21.2995 128° Southeast  Level Estimated
03:03PM 45.6496 21.4176 128° Southeast  Level Estimated
03:04PM 45.5844 21.5354 128° Southeast  Level Estimated
03:05PM 45.5190 21.6529 129° Southeast  Level Estimated
03:06PM 45.4534 21.7702 129° Southeast  Level Estimated
03:07PM 45.3878 21.8871 129° Southeast  Level Estimated
03:08PM 45.3220 22.0039 129° Southeast  Level Estimated
03:09PM 45.2561 22.1203 129° Southeast  Level Estimated
03:10PM 45.1902 22.2365 129° Southeast  Level Estimated
03:11PM 45.1240 22.3524 129° Southeast  Level Estimated
03:12PM 45.0578 22.4680 129° Southeast  Level Estimated
03:13PM 44.9915 22.5834 129° Southeast  Level Estimated
03:14PM 44.9250 22.6985 129° Southeast  Level Estimated
03:15PM 44.8584 22.8133 129° Southeast  Level Estimated
03:16PM 44.7917 22.9278 129° Southeast  Level Estimated
03:17PM 44.7249 23.0421 130° Southeast  Level Estimated
03:18PM 44.6580 23.1562 130° Southeast  Level Estimated
03:19PM 44.5909 23.2699 130° Southeast  Level Estimated
03:20PM 44.5238 23.3834 130° Southeast  Level Estimated
03:21PM 44.4565 23.4967 130° Southeast  Level Estimated
03:22PM 44.3891 23.6097 130° Southeast  Level Estimated
03:23PM 44.3217 23.7224 130° Southeast  Level Estimated
03:24PM 44.2541 23.8349 130° Southeast  Level Estimated
03:25PM 44.1864 23.9471 130° Southeast  Level Estimated
03:26PM 44.1185 24.0590 130° Southeast  Level Estimated
03:27PM 44.0506 24.1707 130° Southeast  Level Estimated
03:28PM 43.9826 24.2822 130° Southeast  Level Estimated
03:29PM 43.9145 24.3934 130° Southeast  Level Estimated
03:30PM 43.8462 24.5043 131° Southeast  Level Estimated
03:31PM 43.7778 24.6150 131° Southeast  Level Estimated
03:32PM 43.7094 24.7254 131° Southeast  Level Estimated
03:33PM 43.6408 24.8355 131° Southeast  Level Estimated
03:34PM 43.5721 24.9455 131° Southeast  Level Estimated
03:35PM 43.5033 25.0551 131° Southeast  Level Estimated
03:36PM 43.4345 25.1646 131° Southeast  Level Estimated
03:37PM 43.3655 25.2737 131° Southeast  Level Estimated
03:38PM 43.2964 25.3826 131° Southeast  Level Estimated
03:39PM 43.2272 25.4913 131° Southeast  Level Estimated
03:40PM 43.1579 25.5997 131° Southeast  Level Estimated
03:41PM 43.0885 25.7079 131° Southeast  Level Estimated
03:42PM 43.0190 25.8158 131° Southeast  Level Estimated
03:43PM 42.9494 25.9235 131° Southeast  Level Estimated
03:44PM 42.8797 26.0310 132° Southeast  Level Estimated
03:45PM 42.8099 26.1382 132° Southeast  Level Estimated
03:46PM 42.7400 26.2451 132° Southeast  Level Estimated
03:47PM 42.6700 26.3519 132° Southeast  Level Estimated
03:48PM 42.5999 26.4583 132° Southeast  Level Estimated
03:49PM 42.5297 26.5646 132° Southeast  Level Estimated
03:50PM 42.4594 26.6706 132° Southeast  Level Estimated
03:51PM 42.3890 26.7763 132° Southeast  Level Estimated
03:52PM 42.3185 26.8819 132° Southeast  Level Estimated
03:53PM 42.2479 26.9872 132° Southeast  Level Estimated
03:54PM 42.1772 27.0922 132° Southeast  Level Estimated
03:55PM 42.1065 27.1970 132° Southeast  Level Estimated
03:56PM 42.0356 27.3016 132° Southeast  Level Estimated
03:57PM 41.9646 27.4060 132° Southeast  Level Estimated
03:58PM 41.8936 27.5101 133° Southeast  Level Estimated
03:59PM 41.8224 27.6140 133° Southeast  Level Estimated
04:00PM 41.7511 27.7176 133° Southeast  Level Estimated
04:01PM 41.6798 27.8211 133° Southeast  Level Estimated
04:02PM 41.6084 27.9243 133° Southeast  Level Estimated
04:03PM 41.5368 28.0272 133° Southeast  Level Estimated
04:04PM 41.4652 28.1300 133° Southeast  Level Estimated
04:05PM 41.3935 28.2325 133° Southeast  Level Estimated
04:06PM 41.3217 28.3348 133° Southeast  Level Estimated
04:07PM 41.2498 28.4368 133° Southeast  Level Estimated
04:08PM 41.1778 28.5387 133° Southeast  Level Estimated
04:09PM 41.1058 28.6403 133° Southeast  Level Estimated
04:10PM 41.0336 28.7417 133° Southeast  Level Estimated
04:11PM 40.9613 28.8429 313° West  Level Estimated
04:12PM 41.0336 28.7417 133° Southeast  Level Estimated
04:13PM 40.9613 28.8429 313° West  Level Estimated
04:14PM 41.0336 28.7417 133° Southeast  Level Estimated
04:15PM 40.9613 28.8429 313° West  Level Estimated
04:16PM 41.0336 28.7417 133° Southeast  Level Estimated
04:17PM 40.9613 28.8429 313° West  Level Estimated
04:18PM 41.0336 28.7417 133° Southeast  Level Estimated
04:19PM 40.9613 28.8429 313° West  Level Estimated
04:20PM 41.0336 28.7417 133° Southeast  Level Estimated
04:21PM 40.9613 28.8429 313° West  Level Estimated
04:22PM 41.0336 28.7417 133° Southeast  Level Estimated
04:23PM 40.9613 28.8429 313° West  Level Estimated
04:24PM 41.0336 28.7417 133° Southeast  Level Estimated
04:25PM 40.9613 28.8429 313° West  Level Estimated
04:26PM 41.0336 28.7417 313° West  Level Estimated